createdAt,value
2019-01-02T00:00:02.801Z,101470.34
2019-01-02T00:03:28.071Z,101478.33
2019-01-02T00:06:55.644Z,101460.38
2019-01-02T00:10:18.517Z,101467.56
2019-01-02T00:13:34.034Z,101454.91
2019-01-02T00:16:56.942Z,101483.75
2019-01-02T00:20:13.452Z,101477.95
2019-01-02T00:23:35.888Z,101478.88
2019-01-02T00:26:51.010Z,101473.95
2019-01-02T00:30:13.401Z,101380.27
2019-01-02T00:33:51.148Z,101471.86
2019-01-02T00:37:14.226Z,101476.47
2019-01-02T00:40:29.856Z,101471.20
2019-01-02T00:43:52.240Z,101475.88
2019-01-02T00:47:08.316Z,101439.16
2019-01-02T00:50:31.339Z,101475.02
2019-01-02T00:53:47.248Z,101483.66
2019-01-02T00:57:02.580Z,101471.89
2019-01-02T01:00:27.858Z,101487.69
2019-01-02T01:03:43.982Z,101481.84
2019-01-02T01:07:00.190Z,101489.13
2019-01-02T01:10:22.983Z,101498.73
2019-01-02T01:13:38.496Z,101479.61
2019-01-02T01:16:53.750Z,101482.15
2019-01-02T01:20:18.459Z,101478.66
2019-01-02T01:23:33.779Z,101480.07
2019-01-02T01:26:56.176Z,101495.02
2019-01-02T01:30:12.068Z,101495.56
2019-01-02T01:33:34.449Z,101499.59
2019-01-02T01:36:49.950Z,101516.75
2019-01-02T01:40:12.515Z,101513.91
2019-01-02T01:43:27.604Z,101515.73
2019-01-02T01:46:50.330Z,101507.34
2019-01-02T01:50:06.088Z,101497.64
2019-01-02T01:53:21.709Z,101515.02
2019-01-02T01:56:36.897Z,101513.56
2019-01-02T01:59:52.228Z,101515.34
2019-01-02T02:03:07.842Z,101472.48
2019-01-02T02:06:30.608Z,101517.34
2019-01-02T02:09:46.416Z,101523.11
2019-01-02T02:13:09.138Z,101450.37
2019-01-02T02:16:24.909Z,101527.42
2019-01-02T02:19:40.791Z,101475.62
2019-01-02T02:23:04.017Z,101556.52
2019-01-02T02:26:31.589Z,101530.59
2019-01-02T02:29:53.990Z,101559.89
2019-01-02T02:33:09.513Z,101550.89
2019-01-02T02:36:32.075Z,101546.59
2019-01-02T02:40:10.323Z,101541.71
2019-01-02T02:43:32.759Z,101537.53
2019-01-02T02:46:48.099Z,101545.87
2019-01-02T02:50:12.327Z,101544.47
2019-01-02T02:53:27.925Z,101539.88
2019-01-02T02:56:51.003Z,101538.24
2019-01-02T03:00:28.100Z,101538.47
2019-01-02T03:03:50.851Z,101538.69
2019-01-02T03:07:06.897Z,101541.64
2019-01-02T03:10:29.799Z,101532.28
2019-01-02T03:13:45.288Z,101545.91
2019-01-02T03:17:08.132Z,101525.67
2019-01-02T03:20:45.625Z,101535.37
2019-01-02T03:24:08.448Z,101537.91
2019-01-02T03:27:24.509Z,101530.60
2019-01-02T03:30:40.673Z,101556.91
2019-01-02T03:34:03.396Z,101556.00
2019-01-02T03:37:20.335Z,101564.53
2019-01-02T03:40:42.726Z,101574.00
2019-01-02T03:43:57.739Z,101549.54
2019-01-02T03:47:13.256Z,101559.28
2019-01-02T03:50:29.600Z,101543.26
2019-01-02T03:53:45.738Z,101563.31
2019-01-02T03:57:08.151Z,101561.06
2019-01-02T04:00:23.289Z,101556.05
2019-01-02T04:03:46.078Z,101560.09
2019-01-02T04:07:02.065Z,101567.77
2019-01-02T04:10:24.465Z,101568.94
2019-01-02T04:13:27.360Z,101566.98
2019-01-02T04:16:50.365Z,101579.03
2019-01-02T04:20:05.771Z,101566.59
2019-01-02T04:23:28.293Z,101496.20
2019-01-02T04:26:44.686Z,101563.92
2019-01-02T04:30:09.871Z,101571.16
2019-01-02T04:33:24.929Z,101575.60
2019-01-02T04:36:47.612Z,101566.44
2019-01-02T04:40:03.076Z,101554.64
2019-01-02T04:43:18.944Z,101567.15
2019-01-02T04:46:41.357Z,101570.11
2019-01-02T04:49:56.691Z,101556.40
2019-01-02T04:53:12.347Z,101557.08
2019-01-02T04:56:34.741Z,101561.70
2019-01-02T04:59:49.949Z,101561.52
2019-01-02T05:03:12.651Z,101577.23
2019-01-02T05:06:28.437Z,101588.11
2019-01-02T05:09:50.909Z,101589.91
2019-01-02T05:13:06.313Z,101595.20
2019-01-02T05:16:29.003Z,101606.27
2019-01-02T05:19:44.689Z,101597.48
2019-01-02T05:23:07.078Z,101620.08
2019-01-02T05:26:22.183Z,101600.34
2019-01-02T05:29:44.595Z,101612.83
2019-01-02T05:32:59.631Z,101601.60
2019-01-02T05:36:22.330Z,101594.39
2019-01-02T05:39:38.183Z,101599.78
2019-01-02T05:43:00.862Z,101603.89
2019-01-02T05:46:16.392Z,101612.31
2019-01-02T05:49:31.972Z,101615.70
2019-01-02T05:52:47.344Z,101615.19
2019-01-02T05:56:02.495Z,101629.72
2019-01-02T05:59:25.559Z,101591.00
2019-01-02T06:02:41.270Z,101637.13
2019-01-02T06:06:03.649Z,101638.07
2019-01-02T06:09:18.728Z,101651.14
2019-01-02T06:12:41.196Z,101645.52
2019-01-02T06:15:57.600Z,101653.20
2019-01-02T06:19:19.997Z,101658.64
2019-01-02T06:22:35.791Z,101654.34
2019-01-02T06:25:58.482Z,101656.48
2019-01-02T06:29:14.244Z,101655.24
2019-01-02T06:32:36.658Z,101584.20
2019-01-02T06:35:51.927Z,101658.11
2019-01-02T06:39:07.424Z,101667.36
2019-01-02T06:42:30.104Z,101661.79
2019-01-02T06:45:45.532Z,101655.08
2019-01-02T06:49:07.919Z,101662.95
2019-01-02T06:52:22.875Z,101606.18
2019-01-02T06:55:38.710Z,101673.59
2019-01-02T06:59:01.393Z,101681.99
2019-01-02T07:02:17.188Z,101686.44
2019-01-02T07:05:40.247Z,101623.52
2019-01-02T07:08:56.323Z,101694.96
2019-01-02T07:12:19.004Z,101687.17
2019-01-02T07:15:34.749Z,101680.05
2019-01-02T07:18:57.152Z,101691.50
2019-01-02T07:22:12.509Z,101707.04
2019-01-02T07:25:35.620Z,101630.93
2019-01-02T07:28:51.200Z,101716.44
2019-01-02T07:32:13.612Z,101725.30
2019-01-02T07:35:48.727Z,101720.21
2019-01-02T07:39:50.304Z,101730.55
2019-01-02T07:43:25.820Z,101746.30
2019-01-02T07:47:04.346Z,101741.16
2019-01-02T07:50:39.245Z,101735.69
2019-01-02T07:54:14.255Z,101726.50
2019-01-02T07:57:48.820Z,101750.72
2019-01-02T08:01:50.190Z,101763.62
2019-01-02T08:05:25.569Z,101758.36
2019-01-02T08:09:14.789Z,101692.05
2019-01-02T08:12:35.292Z,101761.62
2019-01-02T08:16:36.605Z,101761.67
2019-01-02T08:20:11.125Z,101773.07
2019-01-02T08:24:12.447Z,101767.75
2019-01-02T08:27:50.026Z,101764.89
2019-01-02T08:31:39.244Z,101769.04
2019-01-02T08:35:14.060Z,101750.72
2019-01-02T08:39:15.361Z,101764.47
2019-01-02T08:42:53.291Z,101738.91
2019-01-02T08:46:29.209Z,101779.23
2019-01-02T08:49:59.299Z,101791.69
2019-01-02T08:54:00.555Z,101799.08
2019-01-02T08:57:35.610Z,101803.07
2019-01-02T09:01:36.914Z,101796.67
2019-01-02T09:04:56.637Z,101722.91
2019-01-02T09:08:34.787Z,101811.32
2019-01-02T09:12:36.091Z,101813.14
2019-01-02T09:16:10.776Z,101816.29
2019-01-02T09:20:12.322Z,101823.33
2019-01-02T09:23:46.873Z,101826.86
2019-01-02T09:27:48.181Z,101826.42
2019-01-02T09:31:26.486Z,101751.65
2019-01-02T09:35:01.548Z,101849.22
2019-01-02T09:38:40.668Z,101775.38
2019-01-02T09:42:00.104Z,101850.52
2019-01-02T09:46:01.692Z,101868.29
2019-01-02T09:49:40.217Z,101880.22
2019-01-02T09:53:41.531Z,101875.27
2019-01-02T09:57:16.612Z,101876.21
2019-01-02T10:00:43.979Z,101889.44
2019-01-02T10:04:45.606Z,101879.42
2019-01-02T10:08:13.644Z,101799.65
2019-01-02T10:12:02.957Z,101876.89
2019-01-02T10:15:40.734Z,101885.98
2019-01-02T10:19:42.032Z,101886.72
2019-01-02T10:23:17.333Z,101877.63
2019-01-02T10:26:41.588Z,101884.72
2019-01-02T10:30:43.255Z,101885.26
2019-01-02T10:34:19.001Z,101871.48
2019-01-02T10:38:14.722Z,101783.81
2019-01-02T10:41:49.693Z,101870.34
2019-01-02T10:45:31.102Z,101875.43
2019-01-02T10:49:32.660Z,101880.27
2019-01-02T10:53:08.136Z,101878.82
2019-01-02T10:56:54.035Z,101872.95
2019-01-02T11:00:28.816Z,101877.27
2019-01-02T11:04:30.124Z,101839.71
2019-01-02T11:08:04.637Z,101888.19
2019-01-02T11:11:53.122Z,101880.45
2019-01-02T11:15:44.042Z,101888.30
2019-01-02T11:19:16.166Z,101895.34
2019-01-02T11:23:17.711Z,101882.31
2019-01-02T11:26:52.996Z,101888.30
2019-01-02T11:30:54.868Z,101892.36
2019-01-02T11:34:29.522Z,101841.38
2019-01-02T11:38:30.824Z,101881.78
2019-01-02T11:42:08.928Z,101889.72
2019-01-02T11:45:31.770Z,101865.44
2019-01-02T11:48:47.636Z,101883.63
2019-01-02T11:52:10.281Z,101885.62
2019-01-02T11:55:25.754Z,101888.88
2019-01-02T11:58:50.043Z,101880.98
2019-01-02T12:02:25.544Z,101887.72
2019-01-02T12:05:48.293Z,101829.52
2019-01-02T12:09:05.792Z,101890.78
2019-01-02T12:12:28.427Z,101894.96
2019-01-02T12:15:44.083Z,101885.71
2019-01-02T12:18:59.573Z,101890.23
2019-01-02T12:22:22.320Z,101889.97
2019-01-02T12:25:37.785Z,101872.69
2019-01-02T12:29:00.571Z,101893.02
2019-01-02T12:32:15.796Z,101816.63
2019-01-02T12:35:30.804Z,101903.75
2019-01-02T12:38:53.181Z,101896.86
2019-01-02T12:42:08.701Z,101901.17
2019-01-02T12:45:31.140Z,101899.17
2019-01-02T12:48:46.712Z,101899.91
2019-01-02T12:52:09.382Z,101901.33
2019-01-02T12:55:25.430Z,101903.50
2019-01-02T12:58:47.804Z,101911.80
2019-01-02T13:02:25.709Z,101911.32
2019-01-02T13:06:25.893Z,101909.27
2019-01-02T13:10:20.179Z,101913.80
2019-01-02T13:13:42.583Z,101923.37
2019-01-02T13:17:28.309Z,101919.36
2019-01-02T13:20:53.072Z,101917.47
2019-01-02T13:24:54.357Z,101880.42
2019-01-02T13:28:29.484Z,101880.50
2019-01-02T13:32:31.062Z,101929.66
2019-01-02T13:36:09.014Z,101934.08
2019-01-02T13:39:43.705Z,101931.66
2019-01-02T13:43:21.444Z,101943.13
2019-01-02T13:47:07.785Z,101947.75
2019-01-02T13:50:32.361Z,101955.31
2019-01-02T13:53:48.901Z,101937.74
2019-01-02T13:57:11.301Z,101965.97
2019-01-02T14:00:27.454Z,101874.46
2019-01-02T14:03:44.009Z,101966.64
2019-01-02T14:07:06.871Z,101970.70
2019-01-02T14:10:22.879Z,101974.03
2019-01-02T14:13:38.489Z,101979.59
2019-01-02T14:17:00.919Z,101886.02
2019-01-02T14:20:16.330Z,101976.71
2019-01-02T14:23:31.788Z,101986.69
2019-01-02T14:26:54.300Z,101987.98
2019-01-02T14:30:09.748Z,101913.16
2019-01-02T14:33:33.161Z,101994.03
2019-01-02T14:36:48.489Z,101978.16
2019-01-02T14:40:04.052Z,101959.32
2019-01-02T14:43:26.967Z,101996.48
2019-01-02T14:46:42.443Z,102002.83
2019-01-02T14:54:02.187Z,101961.27
2019-01-02T14:57:19.445Z,102022.16
2019-01-02T15:00:41.840Z,102016.39
2019-01-02T15:03:57.341Z,102018.49
2019-01-02T15:07:19.745Z,101968.66
2019-01-02T15:10:35.632Z,102019.16
2019-01-02T15:13:58.080Z,102022.33
2019-01-02T15:17:13.397Z,102018.41
2019-01-02T15:20:36.094Z,102030.50
2019-01-02T15:23:52.240Z,102027.74
2019-01-02T15:27:14.951Z,102025.16
2019-01-02T15:30:30.579Z,102026.78
2019-01-02T15:33:53.296Z,102036.16
2019-01-02T15:37:09.475Z,102011.42
2019-01-02T15:40:32.428Z,102033.05
2019-01-02T15:43:47.727Z,102040.39
2019-01-02T15:47:10.214Z,102042.80
2019-01-02T15:50:28.182Z,102043.70
2019-01-02T15:53:50.704Z,102053.80
2019-01-02T15:57:06.612Z,102050.67
2019-01-02T16:00:28.994Z,102052.80
2019-01-02T16:03:44.113Z,102061.48
2019-01-02T16:07:06.793Z,102064.64
2019-01-02T16:10:22.708Z,102075.98
2019-01-02T16:13:45.090Z,102078.55
2019-01-02T16:17:00.154Z,102082.01
2019-01-02T16:20:22.547Z,102083.45
2019-01-02T16:23:37.923Z,101998.63
2019-01-02T16:26:53.260Z,102078.65
2019-01-02T16:30:08.910Z,102089.62
2019-01-02T16:33:24.649Z,102096.70
2019-01-02T16:36:47.048Z,102092.71
2019-01-02T16:40:02.299Z,102101.85
2019-01-02T16:43:25.084Z,102102.58
2019-01-02T16:46:40.271Z,102090.89
2019-01-02T16:50:14.858Z,102099.44
2019-01-02T16:53:37.214Z,102107.18
2019-01-02T16:56:52.189Z,102025.81
2019-01-02T17:00:14.554Z,102105.33
2019-01-02T17:03:29.629Z,102122.19
2019-01-02T17:06:52.028Z,102119.67
2019-01-02T17:10:09.004Z,102123.66
2019-01-02T17:13:24.409Z,102121.05
2019-01-02T17:16:46.792Z,102114.34
2019-01-02T17:20:01.954Z,102115.31
2019-01-02T17:23:19.215Z,102121.61
2019-01-02T17:26:41.621Z,102125.69
2019-01-02T17:29:56.979Z,102105.01
2019-01-02T17:33:12.353Z,102129.09
2019-01-02T17:36:27.928Z,102086.03
2019-01-02T17:39:43.364Z,102113.34
2019-01-02T17:43:05.765Z,102131.65
2019-01-02T17:46:21.863Z,102137.59
2019-01-02T17:49:37.099Z,102125.09
2019-01-02T17:52:59.470Z,102057.55
2019-01-02T17:56:14.663Z,102151.50
2019-01-02T17:59:37.687Z,102149.09
2019-01-02T18:02:53.216Z,102154.20
2019-01-02T18:06:15.770Z,102155.61
2019-01-02T18:09:31.584Z,102154.55
2019-01-02T18:12:54.533Z,102164.11
2019-01-02T18:16:10.027Z,102161.43
2019-01-02T18:19:32.413Z,102162.59
2019-01-02T18:22:48.122Z,102170.73
2019-01-02T18:26:10.517Z,102129.04
2019-01-02T18:29:26.412Z,102170.76
2019-01-02T18:32:41.965Z,102169.94
2019-01-02T18:36:04.436Z,102175.63
2019-01-02T18:39:19.474Z,102162.91
2019-01-02T18:42:34.816Z,102173.57
2019-01-02T18:45:57.218Z,102180.39
2019-01-02T18:49:12.597Z,102175.93
2019-01-02T18:52:29.010Z,102187.33
2019-01-02T18:55:51.409Z,102178.27
2019-01-02T18:59:07.046Z,102186.09
2019-01-02T19:02:22.104Z,102181.48
2019-01-02T19:05:35.586Z,102185.00
2019-01-02T19:08:59.371Z,102179.62
2019-01-02T19:12:15.609Z,102162.73
2019-01-02T19:15:38.398Z,102179.73
2019-01-02T19:18:54.005Z,102185.61
2019-01-02T19:22:16.411Z,102178.31
2019-01-02T19:25:32.037Z,102182.91
2019-01-02T19:28:47.167Z,102179.00
2019-01-02T19:32:02.691Z,102190.13
2019-01-02T19:35:17.819Z,102188.46
2019-01-02T19:38:33.184Z,102194.17
2019-01-02T19:41:55.980Z,102198.30
2019-01-02T19:45:12.001Z,102202.58
2019-01-02T19:48:34.820Z,102151.14
2019-01-02T19:51:50.816Z,102201.73
2019-01-02T19:55:07.036Z,102199.16
2019-01-02T19:58:29.549Z,102112.19
2019-01-02T20:01:44.839Z,102198.79
2019-01-02T20:04:47.817Z,102198.67
2019-01-02T20:08:02.818Z,102194.55
2019-01-02T20:11:25.479Z,102100.79
2019-01-02T20:14:41.137Z,102192.34
2019-01-02T20:18:03.578Z,102198.41
2019-01-02T20:21:19.379Z,102201.47
2019-01-02T20:24:42.040Z,102185.19
2019-01-02T20:27:57.773Z,102177.23
2019-01-02T20:31:20.569Z,102192.21
2019-01-02T20:34:36.423Z,102186.59
2019-01-02T20:37:52.369Z,102185.00
2019-01-02T20:41:07.876Z,102188.42
2019-01-02T20:44:31.317Z,102185.41
2019-01-02T20:47:48.045Z,102182.64
2019-01-02T20:51:10.583Z,102172.06
2019-01-02T20:54:25.750Z,102174.19
2019-01-02T20:57:41.312Z,102169.58
2019-01-02T21:00:57.468Z,102170.80
2019-01-02T21:04:20.167Z,102098.26
2019-01-02T21:07:36.132Z,102165.34
2019-01-02T21:10:58.500Z,102166.03
2019-01-02T21:14:14.357Z,102054.88
2019-01-02T21:17:37.336Z,102158.89
2019-01-02T21:20:52.795Z,102152.97
2019-01-02T21:24:08.048Z,102158.77
2019-01-02T21:27:30.435Z,102138.09
2019-01-02T21:30:46.410Z,102164.44
2019-01-02T21:34:02.599Z,102162.46
2019-01-02T21:37:25.172Z,102144.70
2019-01-02T21:40:41.040Z,102167.05
2019-01-02T21:44:03.420Z,102150.24
2019-01-02T21:47:18.732Z,102136.62
2019-01-02T21:50:41.187Z,102156.39
2019-01-02T21:53:56.539Z,102154.75
2019-01-02T21:57:18.969Z,102155.17
2019-01-02T22:00:33.999Z,102154.86
2019-01-02T22:03:56.757Z,102153.55
2019-01-02T22:07:12.771Z,102153.64
2019-01-02T22:10:35.435Z,102072.09
2019-01-02T22:13:50.888Z,102145.81
2019-01-02T22:17:13.280Z,102150.73
2019-01-02T22:20:28.443Z,102103.39
2019-01-02T22:23:53.075Z,102153.37
2019-01-02T22:27:08.521Z,102071.39
2019-01-02T22:30:30.943Z,102160.46
2019-01-02T22:33:46.450Z,102164.39
2019-01-02T22:37:08.817Z,102154.58
2019-01-02T22:40:24.819Z,102152.85
2019-01-02T22:43:40.692Z,102083.95
2019-01-02T22:47:03.321Z,102147.50
2019-01-02T22:50:19.144Z,102148.92
2019-01-02T22:53:35.392Z,102145.43
2019-01-02T22:56:58.402Z,102146.98
2019-01-02T23:04:15.469Z,102144.55
2019-01-02T23:07:54.275Z,102150.34
2019-01-02T23:11:36.242Z,102153.69
2019-01-02T23:15:11.792Z,102153.13
2019-01-02T23:18:51.759Z,102158.81
2019-01-02T23:22:28.051Z,102157.06
2019-01-02T23:26:10.304Z,102157.06
2019-01-02T23:29:45.379Z,102150.48
2019-01-02T23:33:21.024Z,102160.83
2019-01-02T23:36:56.340Z,102159.16
2019-01-02T23:40:31.623Z,102158.43
2019-01-02T23:44:13.907Z,102136.03
2019-01-02T23:47:48.705Z,102154.96
2019-01-02T23:51:30.671Z,102156.50
2019-01-02T23:55:06.195Z,102137.89
2019-01-02T23:58:48.394Z,102153.47
